createdAt,value
2023-11-08T00:01:49.210Z,1.50
2023-11-08T00:06:50.479Z,1.47
2023-11-08T00:11:51.550Z,1.57
2023-11-08T00:16:52.670Z,1.20
2023-11-08T00:21:53.790Z,1.00
2023-11-08T00:26:54.964Z,1.20
2023-11-08T00:31:56.099Z,1.00
2023-11-08T00:36:57.162Z,1.23
2023-11-08T00:41:58.226Z,1.10
2023-11-08T00:46:59.677Z,1.00
2023-11-08T00:52:01.241Z,0.90
2023-11-08T00:57:02.428Z,1.27
2023-11-08T01:02:04.117Z,1.10
2023-11-08T01:07:05.546Z,1.17
2023-11-08T01:12:06.809Z,1.10
2023-11-08T01:17:09.225Z,1.40
2023-11-08T01:22:10.427Z,2.23
2023-11-08T01:27:11.687Z,1.40
2023-11-08T01:32:12.895Z,1.20
2023-11-08T01:37:13.992Z,1.37
2023-11-08T01:42:18.809Z,1.60
2023-11-08T01:47:19.985Z,1.30
2023-11-08T01:52:22.458Z,1.37
2023-11-08T01:57:24.102Z,1.63
2023-11-08T02:02:25.424Z,1.80
2023-11-08T02:07:26.569Z,1.40
2023-11-08T02:12:29.492Z,1.77
2023-11-08T02:17:30.727Z,1.80
2023-11-08T02:22:32.256Z,2.23
2023-11-08T02:27:33.374Z,1.63
2023-11-08T02:32:35.614Z,1.30
2023-11-08T02:37:36.873Z,1.50
2023-11-08T02:42:42.431Z,2.00
2023-11-08T02:47:43.620Z,1.43
2023-11-08T02:52:44.892Z,1.60
2023-11-08T02:57:46.110Z,1.43
2023-11-08T03:02:47.934Z,1.83
2023-11-08T03:07:53.845Z,1.50
2023-11-08T03:12:55.370Z,1.50
2023-11-08T03:17:56.564Z,1.50
2023-11-08T03:22:57.704Z,1.53
2023-11-08T03:27:59.014Z,1.70
2023-11-08T03:33:01.062Z,2.17
2023-11-08T03:38:02.178Z,1.30
2023-11-08T03:43:03.277Z,1.63
2023-11-08T03:48:04.458Z,2.13
2023-11-08T03:53:07.076Z,1.60
2023-11-08T03:58:08.139Z,1.73
2023-11-08T04:03:09.245Z,1.37
2023-11-08T04:08:10.621Z,1.50
2023-11-08T04:13:12.184Z,2.00
2023-11-08T04:18:13.340Z,2.30
2023-11-08T04:23:14.809Z,1.90
2023-11-08T04:28:16.726Z,2.10
2023-11-08T04:33:18.138Z,2.07
2023-11-08T04:38:20.305Z,1.60
2023-11-08T04:43:21.694Z,2.20
2023-11-08T04:48:22.766Z,2.10
2023-11-08T04:53:23.902Z,2.40
2023-11-08T04:58:25.025Z,2.07
2023-11-08T05:03:26.676Z,2.63
2023-11-08T05:08:27.726Z,2.17
2023-11-08T05:13:28.775Z,2.87
2023-11-08T05:18:30.100Z,2.63
2023-11-08T05:23:31.200Z,3.10
2023-11-08T05:28:32.665Z,3.10
2023-11-08T05:33:33.932Z,2.27
2023-11-08T05:38:35.305Z,2.70
2023-11-08T05:43:36.555Z,2.53
2023-11-08T05:48:38.236Z,2.13
2023-11-08T05:53:39.445Z,2.93
2023-11-08T05:58:40.665Z,2.77
2023-11-08T06:03:42.797Z,3.17
2023-11-08T06:08:49.033Z,2.33
2023-11-08T06:13:50.085Z,3.37
2023-11-08T06:18:51.339Z,3.60
2023-11-08T06:23:52.493Z,4.13
2023-11-08T06:28:53.637Z,3.50
2023-11-08T06:33:54.788Z,4.27
2023-11-08T06:38:55.941Z,4.53
2023-11-08T06:43:57.018Z,3.80
2023-11-08T06:48:58.208Z,3.83
2023-11-08T06:53:59.407Z,3.90
2023-11-08T06:59:00.504Z,4.37
2023-11-08T07:04:01.836Z,4.80
2023-11-08T07:09:03.145Z,3.30
2023-11-08T07:14:04.462Z,4.30
2023-11-08T07:19:05.747Z,3.60
2023-11-08T07:24:07.933Z,4.07
2023-11-08T07:29:09.019Z,3.90
2023-11-08T07:34:10.249Z,4.67
2023-11-08T07:39:15.636Z,4.37
2023-11-08T07:44:30.534Z,3.50
2023-11-08T07:49:31.971Z,4.00
2023-11-08T07:54:35.615Z,3.90
2023-11-08T07:59:36.682Z,3.17
2023-11-08T08:04:38.236Z,3.73
2023-11-08T08:09:39.309Z,3.20
2023-11-08T08:14:40.885Z,3.93
2023-11-08T08:19:41.956Z,3.60
2023-11-08T08:24:43.273Z,3.93
2023-11-08T08:29:44.390Z,3.80
2023-11-08T08:34:45.475Z,3.87
2023-11-08T08:39:46.671Z,4.40
2023-11-08T08:44:47.944Z,4.00
2023-11-08T08:49:50.453Z,3.30
2023-11-08T08:54:51.628Z,3.90
2023-11-08T08:59:52.682Z,3.10
2023-11-08T09:04:53.790Z,3.73
2023-11-08T09:09:54.869Z,3.20
2023-11-08T09:14:56.068Z,3.00
2023-11-08T09:19:58.459Z,3.20
2023-11-08T09:24:59.957Z,3.38
2023-11-08T09:30:01.612Z,2.77
2023-11-08T09:35:03.116Z,2.13
2023-11-08T09:40:09.605Z,2.30
2023-11-08T09:45:12.309Z,3.22
2023-11-08T09:50:13.780Z,2.63
2023-11-08T09:55:15.918Z,1.90
2023-11-08T10:00:23.831Z,2.80
2023-11-08T10:05:25.332Z,2.92
2023-11-08T10:10:26.799Z,1.75
2023-11-08T10:15:31.099Z,2.22
2023-11-08T10:20:35.661Z,2.60
2023-11-08T10:25:37.309Z,1.98
2023-11-08T10:30:42.010Z,1.85
2023-11-08T10:35:43.771Z,1.98
2023-11-08T10:40:45.836Z,1.92
2023-11-08T10:45:47.410Z,1.98
2023-11-08T10:50:51.629Z,2.30
2023-11-08T10:55:53.765Z,1.70
2023-11-08T11:00:57.487Z,1.75
2023-11-08T11:06:01.375Z,1.90
2023-11-08T11:11:03.393Z,1.42
2023-11-08T11:16:14.221Z,1.50
2023-11-08T11:21:28.139Z,1.38
2023-11-08T11:26:48.716Z,1.70
2023-11-08T11:31:50.181Z,1.70
2023-11-08T11:37:13.401Z,1.40
2023-11-08T11:42:19.997Z,1.75
2023-11-08T11:47:28.283Z,2.38
2023-11-08T11:52:32.110Z,1.80
2023-11-08T11:57:33.937Z,1.55
2023-11-08T12:02:35.263Z,1.75
2023-11-08T12:07:38.850Z,1.88
2023-11-08T12:12:43.625Z,1.50
2023-11-08T12:17:51.912Z,1.70
2023-11-08T12:22:54.069Z,1.50
2023-11-08T12:27:58.564Z,1.50
2023-11-08T12:33:00.091Z,1.77
2023-11-08T12:38:02.294Z,1.47
2023-11-08T12:43:56.747Z,1.63
2023-11-08T12:48:36.221Z,1.83
2023-11-08T12:53:38.471Z,1.77
2023-11-08T12:58:39.625Z,1.80
2023-11-08T13:03:42.173Z,1.60
2023-11-08T13:08:53.380Z,2.00
2023-11-08T13:13:54.614Z,1.60
2023-11-08T13:18:55.912Z,1.35
2023-11-08T13:24:03.230Z,1.30
2023-11-08T13:29:09.672Z,1.50
2023-11-08T13:34:10.905Z,1.80
2023-11-08T13:39:13.122Z,1.10
2023-11-08T13:44:14.462Z,1.60
2023-11-08T13:49:15.656Z,1.70
2023-11-08T13:54:17.132Z,1.30
2023-11-08T13:59:22.369Z,1.43
2023-11-08T14:04:24.654Z,1.27
2023-11-08T14:09:25.728Z,1.77
2023-11-08T14:14:26.787Z,1.70
2023-11-08T14:19:27.928Z,1.27
2023-11-08T14:24:29.035Z,1.73
2023-11-08T14:29:36.830Z,1.80
2023-11-08T14:34:42.011Z,1.27
2023-11-08T14:39:44.096Z,1.40
2023-11-08T14:44:47.732Z,1.57
2023-11-08T14:49:50.164Z,1.40
2023-11-08T14:54:51.815Z,1.70
2023-11-08T14:59:52.974Z,1.80
2023-11-08T15:04:54.189Z,1.60
2023-11-08T15:10:00.193Z,1.87
2023-11-08T15:15:02.998Z,1.63
2023-11-08T15:20:04.630Z,1.50
2023-11-08T15:25:06.436Z,1.60
2023-11-08T15:30:08.723Z,1.70
2023-11-08T15:35:10.460Z,1.17
2023-11-08T15:40:13.419Z,1.50
2023-11-08T15:45:14.603Z,1.70
2023-11-08T15:50:15.826Z,2.03
2023-11-08T15:55:17.132Z,1.20
2023-11-08T16:00:19.084Z,0.97
2023-11-08T16:05:20.147Z,1.23
2023-11-08T16:10:22.291Z,1.70
2023-11-08T16:15:23.394Z,1.17
2023-11-08T16:20:24.490Z,1.80
2023-11-08T16:25:26.801Z,1.50
2023-11-08T16:30:59.536Z,1.30
2023-11-08T16:35:48.961Z,1.20
2023-11-08T16:40:50.316Z,1.07
2023-11-08T16:45:51.856Z,1.30
2023-11-08T16:50:52.925Z,1.20
2023-11-08T16:55:54.003Z,1.50
2023-11-08T17:00:55.165Z,1.57
2023-11-08T17:05:57.081Z,1.33
2023-11-08T17:10:58.342Z,0.83
2023-11-08T17:16:00.456Z,1.00
2023-11-08T17:21:01.624Z,1.53
2023-11-08T17:26:02.752Z,1.33
2023-11-08T17:31:04.805Z,1.80
2023-11-08T17:36:06.154Z,1.90
2023-11-08T17:41:09.419Z,1.50
2023-11-08T17:46:11.034Z,1.40
2023-11-08T17:51:12.121Z,1.97
2023-11-08T17:56:13.188Z,2.03
2023-11-08T18:01:17.000Z,1.80
2023-11-08T18:06:18.971Z,1.33
2023-11-08T18:11:20.231Z,2.00
2023-11-08T18:16:22.369Z,1.87
2023-11-08T18:21:23.509Z,1.90
2023-11-08T18:26:25.665Z,1.43
2023-11-08T18:31:26.725Z,1.50
2023-11-08T18:36:28.138Z,1.60
2023-11-08T18:41:29.191Z,1.93
2023-11-08T18:46:30.264Z,1.63
2023-11-08T18:51:31.327Z,1.60
2023-11-08T18:56:32.471Z,2.43
2023-11-08T19:01:34.084Z,1.57
2023-11-08T19:06:41.440Z,1.90
2023-11-08T19:11:44.686Z,1.37
2023-11-08T19:16:45.724Z,1.50
2023-11-08T19:21:50.422Z,0.93
2023-11-08T19:26:51.574Z,1.90
2023-11-08T19:31:52.723Z,1.30
2023-11-08T19:36:54.652Z,1.10
2023-11-08T19:41:55.716Z,1.40
2023-11-08T19:46:56.822Z,1.20
2023-11-08T19:52:07.114Z,1.53
2023-11-08T19:57:08.232Z,1.40
2023-11-08T20:02:09.385Z,1.43
2023-11-08T20:07:10.547Z,1.57
2023-11-08T20:12:11.735Z,1.50
2023-11-08T20:17:12.929Z,1.20
2023-11-08T20:22:15.555Z,1.30
2023-11-08T20:27:16.707Z,1.10
2023-11-08T20:32:17.820Z,1.00
2023-11-08T20:37:19.130Z,1.10
2023-11-08T20:42:20.421Z,1.23
2023-11-08T20:47:21.708Z,1.33
2023-11-08T20:52:27.461Z,1.20
2023-11-08T20:57:31.355Z,1.10
2023-11-08T21:02:32.475Z,1.03
2023-11-08T21:07:33.777Z,1.40
2023-11-08T21:12:34.944Z,1.47
2023-11-08T21:17:36.129Z,1.23
2023-11-08T21:22:37.414Z,1.30
2023-11-08T21:27:38.770Z,1.00
2023-11-08T21:32:39.970Z,0.93
2023-11-08T21:37:41.048Z,1.30
2023-11-08T21:42:42.154Z,0.70
2023-11-08T21:47:43.500Z,0.97
2023-11-08T21:52:44.631Z,1.17
2023-11-08T21:57:45.724Z,1.00
2023-11-08T22:02:46.831Z,1.20
2023-11-08T22:07:47.899Z,1.00
2023-11-08T22:12:48.989Z,1.10
2023-11-08T22:17:50.061Z,1.30
2023-11-08T22:22:51.132Z,1.23
2023-11-08T22:27:53.241Z,1.13
2023-11-08T22:32:54.440Z,0.83
2023-11-08T22:37:55.508Z,1.07
2023-11-08T22:42:56.572Z,1.00
2023-11-08T22:47:57.653Z,1.10
2023-11-08T22:52:59.793Z,1.07
2023-11-08T22:58:01.189Z,1.40
2023-11-08T23:03:03.710Z,0.83
2023-11-08T23:08:08.927Z,0.80
2023-11-08T23:13:10.015Z,1.30
2023-11-08T23:18:15.127Z,1.00
2023-11-08T23:23:16.196Z,0.90
2023-11-08T23:28:17.281Z,0.97
2023-11-08T23:33:18.915Z,1.33
2023-11-08T23:38:20.571Z,1.10
2023-11-08T23:43:23.407Z,0.93
2023-11-08T23:48:24.780Z,0.90
2023-11-08T23:53:26.039Z,1.07
2023-11-08T23:58:27.173Z,1.10
